Extreme weather reports worldwide

Thunderstorm

Station
 
Location
 
Name
 
Wind
Knots
Gust
Knots
Vis
SM
Temp/Dew
C
Baro
inHg
METAR
 
GRU SBGR São Paulo, BR Guarulhos - Governador André Franco Montoro International Airport 10 24 2.49 20/18 29.91 SBGR 251911Z 18010G24KT 4000 TSRA BKN030 FEW040CB 20/18 Q1013
VCP SBKP Campinas, BR Viracopos International Airport 17 6.21 20/18 29.88 SBKP 251900Z 32017KT 9999 3000N TSRA SCT030 SCT050CB BKN080 20/18 Q1012
ACC DGAA Accra, GH Kotoka International Airport 13 0.62 22/21 29.82 DGAA 251900Z 21013KT 1000 TSRA FEW016 SCT022 SCT030CB 22/21 Q1010 NOSIG
CGH SBSP São Paulo, BR Congonhas Airport 11 5.59 20/17 29.94 SBSP 251900Z 17011KT 9000 -TSRA FEW009 SCT011 FEW047CB BKN050 20/17 Q1014
VIX SBVT Vitória, BR Eurico de Aguiar Salles Airport 10 6.21 28/23 29.82 SBVT 251900Z 04010KT 9999 TS VCSH FEW023 FEW030CB 28/23 Q1010

Station
 
Location
 
Name
 
Wind
Knots
Gust
Knots
Vis
SM
Temp/Dew
C
Baro
inHg
METAR
 
GYN SBGO Goiânia, BR Santa Genoveva Airport 10 4.97 23/20 29.88 SBGO 251900Z 14010KT 8000 -TSRA SCT048 SCT050CB BKN090 23/20 Q1012
FVRG 6 6.21 17/16 30.12 FVRG 251900Z 18006KT 130V230 9999 -TSRA FEW030CB BKN080 17/16 Q1020 NOSIG
VXC FQLC Lichinga, MZ Lichinga Airport 2 6.21 21/19 30.06 FQLC 251900Z 26002KT 9999 TS FEW016 SCT020 FEW025CB BKN070 21/19 Q1018 RMK CB TO NE/S/SW
PNR FCPP Pointe Noire, CG Pointe Noire Airport 0 4.97 25/24 29.85 FCPP 251900Z 00000KT 8000 TS FEW010 SCT021 FEW028CB 25/24 Q1011 NOSIG
AKR DNAK Akure, NG Akure Airport 0 3.73 31/20 29.85 DNAK 251900Z 00000KT 6000 TS SCT012 FEW019CB 31/20 Q1011